createdAt,value
2023-03-17T00:00:25.369Z,99091.06
2023-03-17T00:02:54.057Z,99074.97
2023-03-17T00:05:23.724Z,99075.78
2023-03-17T00:07:53.109Z,99067.81
2023-03-17T00:10:22.729Z,99078.53
2023-03-17T00:12:55.133Z,99079.31
2023-03-17T00:15:23.208Z,99085.03
2023-03-17T00:17:50.479Z,99084.56
2023-03-17T00:20:25.476Z,99085.97
2023-03-17T00:22:53.004Z,99075.63
2023-03-17T00:25:23.407Z,99076.56
2023-03-17T00:27:50.994Z,99079.13
2023-03-17T00:30:19.198Z,99072.13
2023-03-17T00:32:46.699Z,99075.31
2023-03-17T00:35:19.637Z,99077.22
2023-03-17T00:37:48.371Z,99082.34
2023-03-17T00:40:17.708Z,99083.28
2023-03-17T00:42:44.975Z,99083.91
2023-03-17T00:45:12.638Z,99085.03
2023-03-17T00:47:40.404Z,99083.94
2023-03-17T00:50:11.534Z,99087.13
2023-03-17T00:52:39.263Z,99085.38
2023-03-17T00:55:09.899Z,99088.41
2023-03-17T00:57:37.821Z,99084.44
2023-03-17T01:00:06.636Z,99090.00
2023-03-17T01:02:33.664Z,99082.34
2023-03-17T01:05:06.255Z,99085.88
2023-03-17T01:07:35.123Z,99086.81
2023-03-17T01:10:02.207Z,99079.97
2023-03-17T01:12:31.199Z,99082.38
2023-03-17T01:14:58.135Z,99085.56
2023-03-17T01:17:25.172Z,99083.34
2023-03-17T01:19:52.558Z,99089.88
2023-03-17T01:22:19.562Z,99091.44
2023-03-17T01:24:47.842Z,99084.28
2023-03-17T01:27:14.796Z,99098.63
2023-03-17T01:29:43.858Z,99096.38
2023-03-17T01:32:11.177Z,99100.38
2023-03-17T01:34:38.115Z,99091.31
2023-03-17T01:37:05.144Z,99100.84
2023-03-17T01:39:33.488Z,99104.19
2023-03-17T01:42:01.430Z,99100.19
2023-03-17T01:44:28.563Z,99106.56
2023-03-17T01:46:56.897Z,99106.56
2023-03-17T01:49:27.967Z,99105.00
2023-03-17T01:52:02.658Z,99117.56
2023-03-17T01:54:35.070Z,99117.84
2023-03-17T01:57:09.313Z,99119.47
2023-03-17T01:59:40.974Z,99131.88
2023-03-17T02:02:12.572Z,99119.78
2023-03-17T02:04:41.056Z,99132.03
2023-03-17T02:07:08.245Z,99128.03
2023-03-17T02:09:38.026Z,99126.75
2023-03-17T02:12:07.004Z,99126.97
2023-03-17T02:14:34.262Z,99129.00
2023-03-17T02:17:05.359Z,99131.88
2023-03-17T02:19:34.263Z,99133.47
2023-03-17T02:22:02.660Z,99136.00
2023-03-17T02:24:33.632Z,99137.63
2023-03-17T02:27:05.742Z,99138.38
2023-03-17T02:29:35.001Z,99144.44
2023-03-17T02:32:02.081Z,99144.75
2023-03-17T02:34:31.501Z,99153.38
2023-03-17T02:36:58.756Z,99151.78
2023-03-17T02:39:27.552Z,99156.88
2023-03-17T02:41:54.708Z,99156.53
2023-03-17T02:44:22.006Z,99168.19
2023-03-17T02:46:48.939Z,99162.59
2023-03-17T02:49:16.615Z,99171.84
2023-03-17T02:51:43.640Z,99168.31
2023-03-17T02:54:10.873Z,99180.09
2023-03-17T02:56:39.287Z,99176.28
2023-03-17T02:59:09.677Z,99167.22
2023-03-17T03:01:39.720Z,99174.53
2023-03-17T03:04:07.212Z,99176.94
2023-03-17T03:06:34.242Z,99168.78
2023-03-17T03:09:01.379Z,99176.44
2023-03-17T03:11:29.409Z,99184.38
2023-03-17T03:13:57.686Z,99190.44
2023-03-17T03:16:24.689Z,99175.97
2023-03-17T03:18:51.634Z,99177.41
2023-03-17T03:21:18.917Z,99178.19
2023-03-17T03:23:45.952Z,99193.47
2023-03-17T03:26:12.926Z,99189.31
2023-03-17T03:28:40.658Z,99190.44
2023-03-17T03:31:09.263Z,99197.28
2023-03-17T03:33:36.572Z,99192.53
2023-03-17T03:36:03.744Z,99192.03
2023-03-17T03:38:30.886Z,99193.59
2023-03-17T03:40:57.826Z,99191.06
2023-03-17T03:43:24.781Z,99188.06
2023-03-17T03:45:52.185Z,99189.94
2023-03-17T03:48:24.246Z,99197.88
2023-03-17T03:50:55.252Z,99198.50
2023-03-17T03:53:22.562Z,99192.00
2023-03-17T03:55:49.466Z,99199.47
2023-03-17T03:58:16.564Z,99203.91
2023-03-17T04:00:43.643Z,99203.09
2023-03-17T04:03:10.775Z,99209.00
2023-03-17T04:05:39.316Z,99209.16
2023-03-17T04:08:07.026Z,99221.75
2023-03-17T04:10:34.140Z,99226.22
2023-03-17T04:13:01.369Z,99222.69
2023-03-17T04:15:28.340Z,99222.03
2023-03-17T04:17:55.467Z,99233.50
2023-03-17T04:20:22.712Z,99231.41
2023-03-17T04:22:51.443Z,99237.63
2023-03-17T04:25:18.691Z,99245.72
2023-03-17T04:27:45.844Z,99245.53
2023-03-17T04:30:13.919Z,99242.97
2023-03-17T04:32:41.887Z,99241.03
2023-03-17T04:35:13.190Z,99242.59
2023-03-17T04:37:40.540Z,99253.09
2023-03-17T04:40:12.319Z,99266.75
2023-03-17T04:42:39.915Z,99261.97
2023-03-17T04:45:11.549Z,99264.66
2023-03-17T04:47:39.543Z,99268.13
2023-03-17T04:50:08.960Z,99275.00
2023-03-17T04:52:36.472Z,99271.16
2023-03-17T04:55:04.177Z,99273.84
2023-03-17T04:57:32.541Z,99278.13
2023-03-17T04:59:59.493Z,99283.38
2023-03-17T05:02:26.501Z,99281.13
2023-03-17T05:04:54.712Z,99287.00
2023-03-17T05:07:21.720Z,99285.13
2023-03-17T05:09:48.712Z,99286.72
2023-03-17T05:12:16.011Z,99287.19
2023-03-17T05:14:44.326Z,99296.63
2023-03-17T05:17:11.526Z,99293.81
2023-03-17T05:19:38.424Z,99297.66
2023-03-17T05:22:05.825Z,99304.69
2023-03-17T05:24:33.174Z,99304.53
2023-03-17T05:27:00.113Z,99319.06
2023-03-17T05:29:27.052Z,99320.19
2023-03-17T05:31:55.580Z,99332.78
2023-03-17T05:34:22.814Z,99334.81
2023-03-17T05:36:50.495Z,99333.25
2023-03-17T05:39:17.591Z,99326.22
2023-03-17T05:41:44.497Z,99337.72
2023-03-17T05:44:14.585Z,99333.56
2023-03-17T05:46:42.117Z,99337.72
2023-03-17T05:49:10.402Z,99350.13
2023-03-17T05:51:37.330Z,99357.16
2023-03-17T05:54:04.500Z,99356.69
2023-03-17T05:56:33.837Z,99352.25
2023-03-17T05:59:01.858Z,99367.84
2023-03-17T06:01:31.502Z,99361.31
2023-03-17T06:03:58.545Z,99364.84
2023-03-17T06:06:27.058Z,99369.63
2023-03-17T06:08:55.605Z,99369.50
2023-03-17T06:11:22.613Z,99365.38
2023-03-17T06:13:49.592Z,99370.59
2023-03-17T06:16:16.730Z,99368.06
2023-03-17T06:18:44.630Z,99367.88
2023-03-17T06:21:11.718Z,99373.06
2023-03-17T06:23:40.384Z,99370.31
2023-03-17T06:26:07.471Z,99385.56
2023-03-17T06:28:34.460Z,99380.00
2023-03-17T06:31:01.555Z,99379.00
2023-03-17T06:33:28.680Z,99380.50
2023-03-17T06:35:56.228Z,99388.66
2023-03-17T06:38:23.282Z,99387.59
2023-03-17T06:40:51.735Z,99381.34
2023-03-17T06:43:19.679Z,99392.16
2023-03-17T06:45:47.387Z,99395.66
2023-03-17T06:48:14.431Z,99389.81
2023-03-17T06:50:41.572Z,99390.78
2023-03-17T06:53:08.725Z,99395.63
2023-03-17T06:55:35.697Z,99390.59
2023-03-17T06:58:04.075Z,99390.53
2023-03-17T07:00:31.121Z,99391.91
2023-03-17T07:02:58.609Z,99395.19
2023-03-17T07:05:28.214Z,99402.41
2023-03-17T07:07:55.764Z,99393.13
2023-03-17T07:10:23.440Z,99385.97
2023-03-17T07:12:50.439Z,99389.94
2023-03-17T07:15:18.948Z,99386.63
2023-03-17T07:17:47.017Z,99384.59
2023-03-17T07:20:17.147Z,99379.38
2023-03-17T07:22:44.107Z,99386.00
2023-03-17T07:25:11.161Z,99379.44
2023-03-17T07:27:38.393Z,99384.47
2023-03-17T07:30:06.700Z,99386.69
2023-03-17T07:32:36.294Z,99384.75
2023-03-17T07:35:04.888Z,99392.72
2023-03-17T07:37:32.020Z,99393.34
2023-03-17T07:39:58.994Z,99390.97
2023-03-17T07:42:27.828Z,99391.66
2023-03-17T07:44:55.235Z,99390.25
2023-03-17T07:47:22.181Z,99383.72
2023-03-17T07:49:50.491Z,99386.53
2023-03-17T07:52:17.400Z,99383.19
2023-03-17T07:54:44.735Z,99387.38
2023-03-17T07:57:12.008Z,99382.16
2023-03-17T07:59:40.057Z,99380.78
2023-03-17T08:02:07.590Z,99376.53
2023-03-17T08:04:35.752Z,99371.69
2023-03-17T08:07:06.593Z,99377.22
2023-03-17T08:09:33.676Z,99375.63
2023-03-17T08:12:01.205Z,99374.47
2023-03-17T08:14:28.112Z,99381.44
2023-03-17T08:16:55.890Z,99373.38
2023-03-17T08:19:23.322Z,99381.75
2023-03-17T08:21:50.478Z,99376.88
2023-03-17T08:24:20.719Z,99380.50
2023-03-17T08:26:48.970Z,99379.38
2023-03-17T08:29:16.260Z,99384.22
2023-03-17T08:31:46.314Z,99378.50
2023-03-17T08:34:13.537Z,99382.25
2023-03-17T08:36:40.478Z,99375.66
2023-03-17T08:39:07.761Z,99376.84
2023-03-17T08:41:36.912Z,99375.00
2023-03-17T08:44:03.914Z,99368.16
2023-03-17T08:46:32.820Z,99363.03
2023-03-17T08:49:01.830Z,99353.59
2023-03-17T08:51:31.246Z,99372.03
2023-03-17T08:53:58.788Z,99362.41
2023-03-17T08:56:27.085Z,99353.72
2023-03-17T08:58:56.872Z,99361.06
2023-03-17T09:01:24.543Z,99351.19
2023-03-17T09:03:52.840Z,99354.72
2023-03-17T09:06:19.766Z,99357.41
2023-03-17T09:08:47.612Z,99343.91
2023-03-17T09:11:17.182Z,99337.72
2023-03-17T09:13:46.452Z,99347.22
2023-03-17T09:16:16.282Z,99338.13
2023-03-17T09:18:43.551Z,99325.75
2023-03-17T09:21:13.309Z,99328.25
2023-03-17T09:23:41.423Z,99334.59
2023-03-17T09:26:09.098Z,99330.63
2023-03-17T09:28:36.349Z,99337.13
2023-03-17T09:31:05.374Z,99339.56
2023-03-17T09:33:33.749Z,99327.41
2023-03-17T09:36:00.771Z,99321.75
2023-03-17T09:38:28.287Z,99331.91
2023-03-17T09:41:00.444Z,99326.94
2023-03-17T09:43:34.056Z,99330.38
2023-03-17T09:46:16.613Z,99322.16
2023-03-17T09:48:54.508Z,99319.47
2023-03-17T09:51:21.572Z,99311.66
2023-03-17T09:53:54.592Z,99324.63
2023-03-17T09:56:23.671Z,99313.66
2023-03-17T09:58:54.062Z,99308.91
2023-03-17T10:01:22.861Z,99313.50
2023-03-17T10:03:51.582Z,99304.94
2023-03-17T10:06:32.265Z,99300.84
2023-03-17T10:09:05.288Z,99307.59
2023-03-17T10:11:41.815Z,99300.59
2023-03-17T10:14:23.615Z,99309.59
2023-03-17T10:16:55.568Z,99305.16
2023-03-17T10:19:28.421Z,99303.13
2023-03-17T10:21:59.146Z,99293.31
2023-03-17T10:24:29.812Z,99292.38
2023-03-17T10:26:59.153Z,99294.81
2023-03-17T10:29:26.339Z,99284.38
2023-03-17T10:31:58.329Z,99294.88
2023-03-17T10:34:29.442Z,99293.69
2023-03-17T10:37:01.380Z,99288.91
2023-03-17T10:39:32.437Z,99277.25
2023-03-17T10:42:09.045Z,99281.16
2023-03-17T10:44:42.148Z,99286.84
2023-03-17T10:47:29.812Z,99282.97
2023-03-17T10:50:02.592Z,99272.69
2023-03-17T10:52:33.182Z,99278.47
2023-03-17T10:55:06.061Z,99276.25
2023-03-17T10:57:37.569Z,99259.72
2023-03-17T11:00:14.639Z,99268.88
2023-03-17T11:02:46.253Z,99266.19
2023-03-17T11:05:21.643Z,99261.56
2023-03-17T11:07:49.337Z,99266.09
2023-03-17T11:10:20.338Z,99257.16
2023-03-17T11:12:50.429Z,99269.25
2023-03-17T11:15:20.100Z,99274.69
2023-03-17T11:17:57.228Z,99272.53
2023-03-17T11:20:40.168Z,99269.00
2023-03-17T11:23:15.733Z,99272.56
2023-03-17T11:25:46.085Z,99270.16
2023-03-17T11:28:19.940Z,99274.13
2023-03-17T11:30:58.641Z,99269.38
2023-03-17T11:33:36.767Z,99262.47
2023-03-17T11:36:13.136Z,99271.34
2023-03-17T11:38:47.656Z,99270.13
2023-03-17T11:41:31.234Z,99275.84
2023-03-17T11:44:29.173Z,99264.50
2023-03-17T11:47:03.182Z,99259.31
2023-03-17T11:49:36.189Z,99269.88
2023-03-17T11:52:11.361Z,99264.88
2023-03-17T11:54:50.728Z,99269.78
2023-03-17T11:57:23.863Z,99271.22
2023-03-17T11:59:54.482Z,99273.44
2023-03-17T12:02:28.774Z,99271.16
2023-03-17T12:04:59.099Z,99278.22
2023-03-17T12:07:33.212Z,99279.56
2023-03-17T12:10:10.957Z,99283.53
2023-03-17T12:12:43.001Z,99280.72
2023-03-17T12:15:16.497Z,99276.53
2023-03-17T12:17:52.294Z,99279.06
2023-03-17T12:20:22.270Z,99288.75
2023-03-17T12:22:57.104Z,99285.00
2023-03-17T12:25:31.011Z,99289.94
2023-03-17T12:28:03.935Z,99291.53
2023-03-17T12:30:47.777Z,99284.81
2023-03-17T12:33:22.079Z,99283.63
2023-03-17T12:35:52.153Z,99286.59
2023-03-17T12:38:25.639Z,99280.28
2023-03-17T12:41:24.049Z,99294.34
2023-03-17T12:44:05.748Z,99282.47
2023-03-17T12:46:51.139Z,99286.22
2023-03-17T12:49:53.814Z,99285.56
2023-03-17T12:52:28.557Z,99285.28
2023-03-17T12:55:02.030Z,99287.59
2023-03-17T12:57:31.397Z,99290.31
2023-03-17T13:00:05.601Z,99283.75
2023-03-17T13:02:37.544Z,99294.38
2023-03-17T13:05:09.258Z,99274.22
2023-03-17T13:07:50.942Z,99290.53
2023-03-17T13:10:40.013Z,99288.69
2023-03-17T13:13:23.350Z,99285.53
2023-03-17T13:15:57.371Z,99295.44
2023-03-17T13:18:45.047Z,99286.94
2023-03-17T13:21:15.261Z,99297.03
2023-03-17T13:23:44.732Z,99288.34
2023-03-17T13:26:14.361Z,99290.13
2023-03-17T13:28:45.468Z,99292.28
2023-03-17T13:31:31.726Z,99280.09
2023-03-17T13:34:06.969Z,99287.78
2023-03-17T13:36:44.622Z,99293.72
2023-03-17T13:39:26.661Z,99286.22
2023-03-17T13:42:18.783Z,99284.22
2023-03-17T13:45:10.515Z,99279.91
2023-03-17T13:47:39.987Z,99276.91
2023-03-17T13:50:15.923Z,99274.94
2023-03-17T13:52:48.203Z,99284.59
2023-03-17T13:55:38.746Z,99285.59
2023-03-17T13:58:33.313Z,99285.38
2023-03-17T14:01:04.344Z,99284.00
2023-03-17T14:03:40.063Z,99287.31
2023-03-17T14:06:11.986Z,99288.63
2023-03-17T14:08:44.704Z,99291.28
2023-03-17T14:11:22.539Z,99280.25
2023-03-17T14:13:56.688Z,99282.91
2023-03-17T14:16:27.984Z,99282.44
2023-03-17T14:19:00.669Z,99277.63
2023-03-17T14:21:32.298Z,99283.47
2023-03-17T14:24:00.955Z,99286.94
2023-03-17T14:26:29.651Z,99282.50
2023-03-17T14:29:01.574Z,99280.94
2023-03-17T14:31:29.625Z,99282.69
2023-03-17T14:33:58.634Z,99280.50
2023-03-17T14:36:26.388Z,99276.53
2023-03-17T14:38:54.540Z,99284.31
2023-03-17T14:41:23.105Z,99279.56
2023-03-17T14:43:52.216Z,99283.06
2023-03-17T14:46:24.104Z,99281.50
2023-03-17T14:48:56.713Z,99281.50
2023-03-17T14:51:26.717Z,99287.16
2023-03-17T14:53:56.882Z,99280.63
2023-03-17T14:56:25.901Z,99278.25
2023-03-17T14:58:53.426Z,99277.81
2023-03-17T15:01:33.905Z,99277.38
2023-03-17T15:04:08.244Z,99289.84
2023-03-17T15:06:37.536Z,99283.31
2023-03-17T15:09:17.915Z,99284.47
2023-03-17T15:11:45.872Z,99288.53
2023-03-17T15:14:21.135Z,99288.88
2023-03-17T15:16:51.341Z,99288.59
2023-03-17T15:19:22.906Z,99292.41
2023-03-17T15:21:50.419Z,99289.47
2023-03-17T15:24:34.161Z,99293.53
2023-03-17T15:27:03.173Z,99280.03
2023-03-17T15:29:30.381Z,99285.44
2023-03-17T15:32:13.037Z,99287.63
2023-03-17T15:34:40.433Z,99275.56
2023-03-17T15:37:15.426Z,99291.63
2023-03-17T15:39:42.400Z,99289.75
2023-03-17T15:42:09.451Z,99295.06
2023-03-17T15:44:36.366Z,99285.16
2023-03-17T15:47:03.958Z,99287.91
2023-03-17T15:49:32.405Z,99281.81
2023-03-17T15:51:59.291Z,99291.78
2023-03-17T15:54:26.284Z,99294.09
2023-03-17T15:56:53.194Z,99297.97
2023-03-17T15:59:20.896Z,99292.13
2023-03-17T16:01:48.045Z,99298.13
2023-03-17T16:04:15.694Z,99298.03
2023-03-17T16:06:44.020Z,99308.31
2023-03-17T16:09:17.683Z,99302.00
2023-03-17T16:11:44.644Z,99301.44
2023-03-17T16:14:11.850Z,99304.56
2023-03-17T16:16:41.382Z,99312.38
2023-03-17T16:19:14.730Z,99305.81
2023-03-17T16:21:43.339Z,99319.66
2023-03-17T16:24:18.754Z,99317.59
2023-03-17T16:26:46.368Z,99320.69
2023-03-17T16:29:15.005Z,99317.66
2023-03-17T16:31:44.071Z,99312.72
2023-03-17T16:34:16.139Z,99312.44
2023-03-17T16:36:44.748Z,99318.19
2023-03-17T16:39:16.894Z,99316.63
2023-03-17T16:41:48.785Z,99317.56
2023-03-17T16:44:18.402Z,99315.66
2023-03-17T16:46:45.698Z,99322.69
2023-03-17T16:49:14.704Z,99313.16
2023-03-17T16:51:42.042Z,99318.59
2023-03-17T16:54:10.770Z,99322.56
2023-03-17T16:56:38.662Z,99318.94
2023-03-17T16:59:07.839Z,99316.41
2023-03-17T17:01:37.290Z,99319.63
2023-03-17T17:04:09.207Z,99322.56
2023-03-17T17:06:36.122Z,99331.22
2023-03-17T17:09:03.374Z,99330.13
2023-03-17T17:11:31.773Z,99334.47
2023-03-17T17:13:59.871Z,99332.41
2023-03-17T17:16:29.258Z,99336.25
2023-03-17T17:18:57.385Z,99336.25
2023-03-17T17:21:24.581Z,99332.88
2023-03-17T17:23:53.155Z,99327.16
2023-03-17T17:26:23.501Z,99338.81
2023-03-17T17:28:51.798Z,99338.50
2023-03-17T17:31:18.907Z,99336.28
2023-03-17T17:33:45.987Z,99343.16
2023-03-17T17:36:15.072Z,99344.44
2023-03-17T17:38:42.555Z,99342.19
2023-03-17T17:41:10.801Z,99337.78
2023-03-17T17:43:38.023Z,99349.88
2023-03-17T17:46:10.708Z,99351.47
2023-03-17T17:48:37.653Z,99356.25
2023-03-17T17:51:04.675Z,99352.13
2023-03-17T17:53:31.780Z,99359.63
2023-03-17T17:55:59.084Z,99367.41
2023-03-17T17:58:26.621Z,99366.47
2023-03-17T18:00:57.040Z,99376.66
2023-03-17T18:03:26.583Z,99375.53
2023-03-17T18:05:53.966Z,99375.19
2023-03-17T18:08:21.803Z,99376.25
2023-03-17T18:10:51.412Z,99377.53
2023-03-17T18:13:19.038Z,99378.66
2023-03-17T18:15:46.083Z,99386.47
2023-03-17T18:18:13.072Z,99386.31
2023-03-17T18:20:41.507Z,99378.16
2023-03-17T18:23:08.648Z,99380.38
2023-03-17T18:25:37.102Z,99387.06
2023-03-17T18:28:04.464Z,99390.25
2023-03-17T18:30:34.771Z,99388.16
2023-03-17T18:33:06.578Z,99390.16
2023-03-17T18:35:37.640Z,99388.53
2023-03-17T18:38:06.089Z,99383.72
2023-03-17T18:40:33.664Z,99384.63
2023-03-17T18:43:01.138Z,99388.09
2023-03-17T18:45:28.974Z,99399.22
2023-03-17T18:47:55.972Z,99391.44
2023-03-17T18:50:23.273Z,99396.38
2023-03-17T18:52:50.562Z,99398.13
2023-03-17T18:55:19.023Z,99393.97
2023-03-17T18:57:47.043Z,99407.31
2023-03-17T19:00:16.516Z,99395.47
2023-03-17T19:02:43.536Z,99397.81
2023-03-17T19:05:11.561Z,99399.09
2023-03-17T19:07:40.335Z,99406.69
2023-03-17T19:10:08.783Z,99401.41
2023-03-17T19:12:37.641Z,99415.94
2023-03-17T19:15:07.728Z,99413.16
2023-03-17T19:17:34.923Z,99408.50
2023-03-17T19:20:02.058Z,99411.72
2023-03-17T19:22:29.014Z,99407.09
2023-03-17T19:24:56.021Z,99416.00
2023-03-17T19:27:23.149Z,99409.25
2023-03-17T19:29:51.556Z,99414.91
2023-03-17T19:32:18.581Z,99411.72
2023-03-17T19:34:47.724Z,99415.28
2023-03-17T19:37:14.745Z,99418.97
2023-03-17T19:39:44.396Z,99420.56
2023-03-17T19:42:12.472Z,99421.72
2023-03-17T19:44:40.002Z,99420.78
2023-03-17T19:47:08.505Z,99414.97
2023-03-17T19:49:35.959Z,99413.81
2023-03-17T19:52:03.331Z,99405.53
2023-03-17T19:54:30.732Z,99415.03
2023-03-17T19:56:57.796Z,99411.19
2023-03-17T19:59:24.747Z,99411.88
2023-03-17T20:01:52.453Z,99415.94
2023-03-17T20:04:22.361Z,99406.88
2023-03-17T20:06:55.049Z,99404.75
2023-03-17T20:09:22.368Z,99417.88
2023-03-17T20:11:49.581Z,99417.88
2023-03-17T20:14:16.566Z,99415.88
2023-03-17T20:16:43.516Z,99414.53
2023-03-17T20:19:10.894Z,99417.22
2023-03-17T20:21:39.297Z,99426.44
2023-03-17T20:24:06.991Z,99413.78
2023-03-17T20:26:34.517Z,99412.88
2023-03-17T20:29:02.090Z,99411.59
2023-03-17T20:31:29.229Z,99419.91
2023-03-17T20:33:56.762Z,99406.00
2023-03-17T20:36:24.279Z,99409.38
2023-03-17T20:38:53.085Z,99407.78
2023-03-17T20:41:21.008Z,99401.47
2023-03-17T20:43:48.219Z,99400.41
2023-03-17T20:46:17.782Z,99396.00
2023-03-17T20:48:47.826Z,99399.63
2023-03-17T20:51:16.483Z,99400.25
2023-03-17T20:53:44.602Z,99394.53
2023-03-17T20:56:15.692Z,99390.28
2023-03-17T20:58:42.784Z,99391.91
2023-03-17T21:01:12.830Z,99395.13
2023-03-17T21:03:40.063Z,99390.72
2023-03-17T21:06:07.448Z,99394.59
2023-03-17T21:08:34.780Z,99388.19
2023-03-17T21:11:02.450Z,99385.13
2023-03-17T21:13:32.226Z,99390.91
2023-03-17T21:16:00.782Z,99389.00
2023-03-17T21:18:28.078Z,99394.75
2023-03-17T21:20:55.539Z,99396.06
2023-03-17T21:23:23.188Z,99396.75
2023-03-17T21:25:55.254Z,99390.47
2023-03-17T21:28:23.391Z,99392.72
2023-03-17T21:30:51.827Z,99382.28
2023-03-17T21:33:18.818Z,99382.28
2023-03-17T21:35:45.837Z,99378.97
2023-03-17T21:38:12.798Z,99387.50
2023-03-17T21:40:39.763Z,99382.59
2023-03-17T21:43:06.652Z,99379.00
2023-03-17T21:45:33.591Z,99388.75
2023-03-17T21:48:01.997Z,99384.97
2023-03-17T21:50:29.822Z,99387.78
2023-03-17T21:52:57.488Z,99380.69
2023-03-17T21:55:24.396Z,99375.75
2023-03-17T21:57:51.320Z,99378.56
2023-03-17T22:00:19.432Z,99375.25
2023-03-17T22:02:46.699Z,99373.63
2023-03-17T22:05:16.330Z,99367.78
2023-03-17T22:07:43.807Z,99380.59
2023-03-17T22:10:11.800Z,99383.41
2023-03-17T22:12:39.301Z,99378.31
2023-03-17T22:15:08.920Z,99376.72
2023-03-17T22:17:36.414Z,99374.59
2023-03-17T22:20:06.835Z,99368.06
2023-03-17T22:22:35.860Z,99374.34
2023-03-17T22:25:05.618Z,99377.81
2023-03-17T22:27:33.521Z,99382.25
2023-03-17T22:30:00.965Z,99379.72
2023-03-17T22:32:28.161Z,99390.50
2023-03-17T22:34:55.239Z,99382.25
2023-03-17T22:37:22.220Z,99386.63
2023-03-17T22:39:50.618Z,99397.84
2023-03-17T22:42:17.643Z,99395.47
2023-03-17T22:44:44.683Z,99389.97
2023-03-17T22:47:11.976Z,99383.31
2023-03-17T22:49:38.888Z,99391.19
2023-03-17T22:52:06.491Z,99387.75
2023-03-17T22:54:33.467Z,99388.13
2023-03-17T22:57:03.115Z,99387.72
2023-03-17T22:59:30.869Z,99382.78
2023-03-17T23:01:57.850Z,99382.16
2023-03-17T23:04:25.677Z,99386.03
2023-03-17T23:06:53.008Z,99390.41
2023-03-17T23:09:20.184Z,99386.94
2023-03-17T23:11:47.756Z,99384.03
2023-03-17T23:14:16.499Z,99393.59
2023-03-17T23:16:44.875Z,99393.91
2023-03-17T23:19:12.147Z,99395.75
2023-03-17T23:21:39.656Z,99390.69
2023-03-17T23:24:08.606Z,99395.22
2023-03-17T23:26:36.988Z,99385.22
2023-03-17T23:29:04.460Z,99379.75
2023-03-17T23:31:34.064Z,99383.22
2023-03-17T23:34:01.055Z,99392.41
2023-03-17T23:36:28.019Z,99389.88
2023-03-17T23:38:55.075Z,99380.16
2023-03-17T23:41:22.734Z,99381.91
2023-03-17T23:43:50.018Z,99378.56
2023-03-17T23:46:17.318Z,99378.81
2023-03-17T23:48:45.737Z,99382.44
2023-03-17T23:51:12.989Z,99382.44
2023-03-17T23:53:40.103Z,99377.88
2023-03-17T23:56:07.356Z,99372.28
2023-03-17T23:58:34.345Z,99380.81
